Weather observations for the past three days for
Creston Municipal Airport
Metric (Imperial)
Date Time (cdt) Wind (kph) Vis. (km) Weather Sky Cond. Temperature (ºC) Relative Humidity Wind Chill (°C) Heat Index (°C) Pressure Precipitation (cm)
Air Dwpt 6 hour altimeter (cm) sea level (mb) 1 hr 3 hr 6 hr
Max. Min.
10 05:55 Calm 16.09 Fair CLR 7 -4 46% 76.53 0.0
10 05:35 Calm 12.87 Fair CLR 7 -4 46% 76.5 0.0
10 05:15 N 7 16.09 Fair CLR 8 -4 43% 7 76.45 0.0
10 04:55 N 15 16.09 Fair CLR 8 -4 43% 6 76.43 0.0
10 04:35 N 17 16.09 Fair CLR 8 -4 43% 6 76.4 0.0
10 04:15 N 11 16.09 Fair CLR 8 -4 43% 6 76.43 0.0
10 03:55 N 13 16.09 Fair CLR 9 -4 40% 7 76.4 0.0
10 03:35 N 17 16.09 Fair CLR 9 -4 40% 7 76.38 0.0
10 03:15 N 15 16.09 Fair CLR 9 -4 40% 7 76.38 0.0
10 02:55 N 17 16.09 Fair CLR 9 -4 40% 7 76.35 0.0
10 02:35 NE 15 16.09 Fair CLR 9 -4 40% 7 76.35 0.0
10 02:15 N 17 16.09 Fair CLR 10 -4 37% 8 76.35 0.0
10 01:55 NE 15 16.09 Fair CLR 10 -4 37% 8 76.33 0.0
10 01:35 NE 15 G 24 16.09 Fair CLR 11 -4 35% 76.3 0.0
10 01:15 N 20 16.09 Fair CLR 11 -4 35% 76.25 0.0
10 00:55 N 20 16.09 Fair CLR 11 -4 35% 76.25 0.0
10 00:35 N 20 16.09 Fair CLR 12 -4 33% 76.23 0.0
10 00:15 N 20 16.09 Fair CLR 12 -4 33% 76.17 0.0
09 23:55 N 20 16.09 Fair CLR 13 -4 31% 76.15 0.0
09 23:35 N 22 16.09 Fair CLR 13 -3 33% 76.15 0.0
09 23:15 N 22 16.09 Fair CLR 13 -3 33% 76.12 0.0
09 22:55 N 20 16.09 Fair CLR 13 -2 36% 76.12 0.0
09 22:15 N 20 16.09 A Few Clouds FEW110 15 -1 34% 76.07 0.0
09 21:55 N 17 16.09 Mostly Cloudy BKN110 15 -1 34% 76.07 0.0
09 21:35 N 20 16.09 Partly Cloudy SCT110 16 -1 31% 76.05 0.0
09 21:15 N 13 16.09 Overcast OVC120 16 0 34% 76 0.0
09 20:55 N 15 16.09 Partly Cloudy SCT120 16 0 34% 75.95 0.0
09 20:35 N 17 16.09 A Few Clouds FEW120 17 0 32% 75.92 0.0
09 20:15 N 15 14.48 Fair CLR 17 1 34% 75.9 0.0
09 19:55 N 22 16.09 Fair CLR 18 3 37% 75.87 0.0
09 19:35 N 22 16.09 Fair CLR 19 4 37% 75.87 0.0
09 19:15 N 24 G 35 16.09 Fair CLR 20 5 38% 75.82 0.0
09 18:55 N 24 G 33 16.09 Fair CLR 20 6 40% 75.82 0.0
09 18:35 N 22 16.09 Fair CLR 20 7 43% 75.79 0.0
09 18:15 N 28 16.09 Fair CLR 20 7 43% 75.77 0.0
09 17:55 N 24 G 35 16.09 A Few Clouds FEW110 20 7 43% 75.77 0.0
09 17:35 N 26 16.09 Mostly Cloudy BKN110 20 7 43% 75.77 0.0
09 17:15 N 20 G 31 16.09 Mostly Cloudy BKN110 20 6 40% 75.74 0.0
09 16:55 N 24 16.09 Partly Cloudy SCT110 21 5 35% 75.69 0.0
09 16:35 N 28 16.09 Mostly Cloudy BKN110 21 4 33% 75.67 0.0
09 16:15 N 20 16.09 A Few Clouds FEW110 22 3 29% 75.67 0.0
09 15:55 N 20 G 30 16.09 A Few Clouds FEW110 22 3 29% 75.67 0.0
09 15:35 N 22 16.09 Partly Cloudy SCT120 22 2 27% 75.67 0.0
09 15:15 NW 26 16.09 Mostly Cloudy BKN120 22 2 27% 75.67 0.0
09 14:55 Calm 16.09 Mostly Cloudy BKN120 23 2 25% 75.67 0.0
09 14:35 NW 17 G 28 16.09 Partly Cloudy SCT120 23 3 27% 75.67 0.0
09 14:15 NW 26 16.09 Partly Cloudy SCT120 23 2 25% 75.67 0.0
09 13:55 NW 30 16.09 A Few Clouds FEW120 23 2 25% 75.67 0.0
09 13:35 NW 19 G 31 16.09 Partly Cloudy SCT110 22 3 29% 75.67 0.0
09 13:15 NW 20 G 37 16.09 Fair CLR 23 4 29% 75.64 0.0
09 12:55 N 15 G 33 16.09 Fair CLR 24 4 27% 25 75.64 0.0
09 12:35 N 20 G 30 16.09 Fair CLR 23 4 29% 75.62 0.0
09 12:15 NW 22 14.48 Fair CLR 23 4 29% 75.64 0.0
09 11:55 N 20 14.48 Fair CLR 23 3 27% 75.64 0.0
09 11:35 NW 26 G 46 16.09 Fair CLR 24 3 25% 25 75.64 0.0
09 11:15 NW 31 G 41 16.09 Fair CLR 24 3 25% 25 75.62 0.0
09 10:55 W 24 G 33 16.09 Fair CLR 23 2 25% 75.62 0.0
09 10:35 W 26 16.09 Fair CLR 23 2 25% 75.62 0.0
09 10:15 W 20 16.09 Fair CLR 22 2 27% 75.59 0.0
09 09:55 W 17 16.09 Fair CLR 21 5 35% 75.59 0.0
09 09:35 W 17 16.09 Fair CLR 19 5 40% 75.59 0.0
09 09:15 W 11 16.09 Fair CLR 18 7 49% 75.59 0.0
09 08:55 W 11 14.48 Fair CLR 16 7 55% 75.59 0.0
09 08:35 W 9 14.48 Fair CLR 15 7 59% 75.59 0.0
09 08:15 W 11 16.09 Fair CLR 13 7 67% 75.59 0.0
09 07:55 W 9 16.09 Fair CLR 12 7 72% 75.59 0.0
09 07:35 W 13 16.09 Fair CLR 10 7 82% 8 75.59 0.0
09 07:15 W 11 16.09 Fair CLR 9 6 82% 8 75.57 0.0
09 06:55 W 9 16.09 Fair CLR 8 6 87% 7 75.54 0.0
09 06:35 W 11 16.09 Fair CLR 7 5 87% 5 75.54 0.0
09 06:15 SW 13 16.09 Fair CLR 7 6 93% 5 75.51 0.0
09 05:55 SW 15 16.09 Fair CLR 7 6 93% 5 75.51 0.0
09 05:35 SW 11 16.09 Fair CLR 8 6 87% 6 75.49 0.0
09 05:15 W 7 16.09 Fair CLR 8 6 87% 7 75.49 0.0
09 04:55 NW 9 16.09 Fair CLR 9 7 87% 8 75.49 0.0
09 04:35 W 9 16.09 Fair CLR 10 7 82% 9 75.49 0.0
09 04:15 W 9 16.09 Fair CLR 9 7 87% 8 75.49 0.0
09 03:55 W 13 16.09 Fair CLR 10 7 82% 8 75.49 0.0
09 03:35 W 13 16.09 Fair CLR 10 7 82% 8 75.46 0.0
09 02:55 W 17 16.09 Fair CLR 11 8 82% 75.46 0.0
09 02:35 W 9 16.09 Fair CLR 11 8 82% 75.46 0.0
09 02:15 W 9 16.09 Fair CLR 11 8 82% 75.49 0.0
09 01:55 W 11 16.09 Fair CLR 12 8 77% 75.49 0.0
09 01:35 SW 13 16.09 Fair CLR 12 8 77% 75.49 0.0
09 01:15 SW 11 16.09 Fair CLR 12 8 77% 75.49 0.0
09 00:55 SW 17 16.09 Fair CLR 12 8 77% 75.49 0.0
09 00:35 SW 15 16.09 Fair CLR 12 8 77% 75.49 0.0
09 00:15 SW 11 16.09 Fair CLR 12 8 77% 75.49 0.0
08 23:55 SW 15 16.09 Fair CLR 13 9 77% 75.49 0.0
08 23:35 SW 17 16.09 Fair CLR 13 9 77% 75.49 0.0
08 23:15 SW 15 16.09 Fair CLR 13 9 77% 75.49 0.0
08 22:55 SW 19 16.09 Fair CLR 13 9 77% 75.51 0.0
08 22:35 SW 15 16.09 Fair CLR 13 9 77% 75.51 0.0
08 22:15 S 13 16.09 Fair CLR 14 9 72% 75.49 0.0
08 21:55 S 17 16.09 Fair CLR 14 9 72% 75.49 0.0
08 21:35 S 19 16.09 Fair CLR 15 9 68% 75.46 0.0
08 21:15 S 19 16.09 Fair CLR 16 9 63% 75.46 0.0
08 20:55 SW 19 16.09 Fair CLR 17 8 56% 75.44 0.0
08 20:35 SW 15 16.09 Fair CLR 17 8 56% 75.44 0.0
08 20:15 S 19 14.48 Partly Cloudy SCT110 18 8 52% 75.41 0.0
08 19:35 SW 24 16.09 Mostly Cloudy SCT100 BKN120 21 5 35% 75.41 0.0
08 19:15 SW 15 16.09 A Few Clouds FEW110 21 3 31% 75.41 0.0
08 18:55 W 15 16.09 Fair CLR 21 3 31% 75.41 0.0
08 18:35 W 19 16.09 Fair CLR 23 2 25% 75.41 0.0
08 18:15 Calm 16.09 Fair CLR 23 0 22% 75.41 0.0
08 17:55 Calm 16.09 A Few Clouds FEW110 23 1 23% 75.44 0.0
08 17:15 W 13 G 26 16.09 Fair CLR 23 1 23% 75.46 0.0
08 16:55 NW 26 16.09 A Few Clouds FEW100 FEW120 23 1 23% 75.44 0.0
08 16:35 W 20 G 30 14.48 Partly Cloudy FEW100 SCT120 24 2 24% 25 75.49 0.0
08 16:15 W 7 G 37 16.09 Partly Cloudy SCT100 23 1 23% 75.49 0.0
08 15:55 Vrbl 9 16.09 Partly Cloudy SCT100 23 6 33% 75.51 0.0
08 15:35 SW 9 G 19 16.09 Fair CLR 22 1 25% 75.51 0.0
08 15:15 NW 13 G 24 16.09 A Few Clouds FEW080 22 1 25% 75.54 0.0
08 14:55 S 13 16.09 Partly Cloudy SCT075 23 6 33% 75.54 0.0
08 14:35 SW 19 16.09 A Few Clouds FEW075 22 6 36% 75.57 0.0
08 14:15 Vrbl 7 G 22 16.09 Partly Cloudy SCT075 22 6 36% 75.57 0.0
08 13:55 SW 17 G 26 16.09 A Few Clouds FEW070 21 6 38% 75.59 0.0
08 13:35 S 17 16.09 Fair CLR 21 6 38% 75.62 0.0
08 13:15 S 15 G 28 16.09 Fair CLR 21 6 38% 75.64 0.0
08 12:55 S 17 16.09 Fair CLR 21 7 40% 75.64 0.0
08 12:35 S 13 16.09 Fair CLR 20 6 40% 75.67 0.0
08 12:15 Vrbl 7 16.09 Fair CLR 20 6 40% 75.67 0.0
08 11:55 Calm 16.09 Fair CLR 19 7 46% 75.69 0.0
08 11:35 Vrbl 7 16.09 Fair CLR 20 7 43% 75.69 0.0
08 11:15 Vrbl 9 16.09 Fair CLR 18 7 49% 75.69 0.0
08 10:55 S 9 16.09 Fair CLR 17 7 52% 75.69 0.0
08 10:35 SE 9 16.09 Fair CLR 16 8 59% 75.69 0.0
08 10:15 S 7 16.09 Fair CLR 15 8 63% 75.69 0.0
08 09:55 Calm 14.48 Fair CLR 14 8 67% 75.72 0.0
08 09:35 Calm 16.09 Fair CLR 13 8 72% 75.72 0.0
08 09:15 SE 11 16.09 Fair CLR 12 8 77% 75.72 0.0
08 08:55 SE 7 14.48 Partly Cloudy FEW070 SCT085 11 7 77% 75.74 0.0
08 08:15 Calm 16.09 Mostly Cloudy FEW031 SCT060 BKN080 11 6 72% 75.74 0.0
08 07:35 SE 11 16.09 Mostly Cloudy BKN110 10 5 71% 9 75.69 0.0
08 07:15 E 7 16.09 Partly Cloudy SCT120 10 5 71% 9 75.69 0.0
08 06:55 E 6 16.09 Partly Cloudy SCT120 10 4 67% 75.69 0.0
08 06:35 NE 9 16.09 Fair CLR 10 4 67% 9 75.69 0.0
08 06:15 NE 9 16.09 Fair CLR 10 4 67% 9 75.72 0.0
08 05:55 N 19 16.09 Fair CLR 10 4 67% 8 75.72 0.0
08 05:35 NE 13 16.09 Fair CLR 10 4 67% 8 75.72 0.0
08 05:15 Calm 16.09 Partly Cloudy SCT100 9 4 71% 75.74 0.0
08 04:55 E 7 16.09 Mostly Cloudy BKN110 8 4 76% 7 75.72 0.0
08 04:35 E 7 16.09 Mostly Cloudy BKN110 9 4 71% 8 75.72 0.0
08 04:15 NE 11 16.09 Mostly Cloudy BKN110 10 4 67% 9 75.72 0.0
08 03:55 NE 11 16.09 Mostly Cloudy BKN110 10 3 62% 9 75.72 0.0
08 03:35 N 9 16.09 Mostly Cloudy BKN110 8 3 71% 7 75.74 0.0
08 03:15 N 9 16.09 Mostly Cloudy BKN110 9 3 66% 8 75.74 0.0
08 02:35 NE 6 16.09 A Few Clouds FEW120 9 3 66% 75.72 0.0
08 02:15 Calm 16.09 A Few Clouds FEW110 9 3 66% 75.74 0.0
08 01:55 Calm 16.09 Fair CLR 9 3 66% 75.74 0.0
08 01:35 Calm 16.09 Fair CLR 9 3 66% 75.77 0.0
08 01:15 Calm 16.09 Fair CLR 9 3 66% 75.77 0.0
08 00:55 Calm 16.09 Fair CLR 10 3 62% 75.77 0.0
08 00:35 Calm 16.09 Fair CLR 11 3 58% 75.77 0.0
08 00:15 N 13 16.09 Fair CLR 13 3 51% 75.74 0.0
07 23:55 NE 13 16.09 Fair CLR 13 3 51% 75.77 0.0
07 23:35 NE 11 16.09 Fair CLR 13 3 51% 75.77 0.0
07 23:15 NE 15 16.09 Fair CLR 13 3 51% 75.77 0.0
07 22:55 NE 15 16.09 Fair CLR 13 3 51% 75.77 0.0
07 22:35 N 13 16.09 Fair CLR 14 3 48% 75.77 0.0
07 21:55 N 13 16.09 Fair CLR 14 3 48% 75.74 0.0
07 21:35 N 15 16.09 Fair CLR 15 3 45% 75.74 0.0
07 21:15 N 15 16.09 Fair CLR 15 2 42% 75.69 0.0
07 20:55 NW 11 16.09 Fair CLR 15 2 42% 75.67 0.0
07 20:35 NW 13 16.09 Fair CLR 16 2 39% 75.64 0.0
07 20:15 NW 13 16.09 Fair CLR 16 2 39% 75.64 0.0
07 19:55 NW 19 0.00 Fair CLR 18 2 34% 75.62 0.0
07 19:35 W 19 16.09 Fair CLR 20 2 30% 75.59 0.0
07 19:15 W 15 16.09 Partly Cloudy SCT095 20 3 33% 75.59 0.0
07 18:55 W 15 16.09 Partly Cloudy SCT095 20 3 33% 75.59 0.0
07 18:35 W 6 16.09 Partly Cloudy SCT095 21 2 29% 75.59 0.0
07 18:15 SW 20 16.09 Mostly Cloudy BKN090 BKN110 21 2 29% 75.59 0.0
07 17:55 SW 20 G 30 16.09 Mostly Cloudy BKN090 21 3 31% 75.59 0.0
07 17:35 SW 19 G 30 14.48 Mostly Cloudy BKN090 BKN110 21 3 31% 75.62 0.0
07 17:15 SW 28 G 41 16.09 Partly Cloudy SCT095 21 2 29% 75.62 0.0
07 16:55 SW 28 16.09 A Few Clouds FEW100 21 2 29% 75.64 0.0
07 16:35 SW 24 G 35 14.48 Mostly Cloudy BKN090 20 3 33% 75.67 0.0
07 16:15 SW 22 G 37 16.09 Mostly Cloudy SCT085 BKN100 20 2 30% 75.69 0.0
07 15:55 W 24 G 37 16.09 Partly Cloudy SCT085 SCT100 20 2 30% 75.69 0.0
07 15:35 SW 20 G 37 16.09 Mostly Cloudy SCT085 BKN100 19 2 32% 75.72 0.0
07 15:15 SW 17 16.09 Partly Cloudy SCT080 SCT100 19 2 32% 75.74 0.0
07 14:35 SW 24 16.09 Mostly Cloudy BKN075 BKN085 19 2 32% 75.77 0.0
07 14:15 SW 28 G 41 16.09 Partly Cloudy SCT070 SCT085 19 3 35% 75.79 0.0
07 13:55 SW 28 G 43 16.09 A Few Clouds FEW070 FEW085 19 3 35% 75.79 0.0
07 13:35 SW 26 G 37 16.09 Fair CLR 19 3 35% 75.79 0.0
07 13:15 SW 26 G 37 16.09 A Few Clouds FEW070 19 2 32% 75.82 0.0
07 12:55 SW 30 G 39 16.09 A Few Clouds FEW065 18 3 37% 75.84 0.0
07 12:15 SW 24 G 41 16.09 A Few Clouds FEW060 18 3 37% 75.9 0.0
07 11:55 W 31 G 41 16.09 Fair CLR 18 4 40% 75.92 0.0
07 11:35 W 30 0.00 A Few Clouds FEW120 17 3 39% 75.92 0.0
07 10:55 W 26 G 35 16.09 Fair CLR 16 4 45% 75.95 0.0
07 10:35 W 26 16.09 Fair CLR 15 5 51% 75.95 0.0
07 10:15 W 26 16.09 Fair CLR 15 5 51% 75.97 0.0
07 09:55 W 26 G 35 16.09 Fair CLR 14 5 55% 75.97 0.0
07 09:35 W 28 G 44 16.09 Fair CLR 13 5 59% 75.97 0.0
07 09:15 W 28 16.09 A Few Clouds FEW110 12 5 63% 75.97 0.0
07 08:55 W 26 G 35 16.09 Partly Cloudy SCT100 11 5 67% 76 0.0
07 08:35 SW 22 16.09 A Few Clouds FEW095 10 5 71% 7 76 0.0
07 08:15 SW 19 16.09 A Few Clouds FEW095 9 4 71% 7 76 0.0
07 07:55 SW 19 16.09 Fair CLR 8 3 71% 5 76.02 0.0
07 07:35 SW 13 16.09 Fair CLR 7 3 76% 5 76.02 0.0
07 07:15 SW 15 16.09 Fair CLR 6 2 76% 3 76 0.0
07 06:55 Calm 16.09 Fair CLR 5 2 81% 76 0.0
07 06:35 SW 9 16.09 Fair CLR 4 1 81% 2 76 0.0
Date Time (cdt) Wind (kph) Vis. (km) Weather Sky Cond. Air Dwpt Max. Min. Relative Humidity Wind Chill (°C) Heat Index (°C) altimeter (cm) sea level (mb) 1 hr 3 hr 6 hr
6 hour
Temperature (ºC) Pressure Precipitation (cm)